createdAt,value
2018-05-26T00:00:35.068Z,15.08
2018-05-26T00:01:34.473Z,15.00
2018-05-26T00:02:34.408Z,15.01
2018-05-26T00:03:34.623Z,15.04
2018-05-26T00:04:34.360Z,15.00
2018-05-26T00:05:34.338Z,15.04
2018-05-26T00:06:34.620Z,15.08
2018-05-26T00:07:34.979Z,15.01
2018-05-26T00:08:34.301Z,14.97
2018-05-26T00:09:34.324Z,15.04
2018-05-26T00:10:35.068Z,15.04
2018-05-26T00:11:34.182Z,15.01
2018-05-26T00:12:34.203Z,15.01
2018-05-26T00:13:34.178Z,15.02
2018-05-26T00:14:35.073Z,15.05
2018-05-26T00:15:34.075Z,15.00
2018-05-26T00:16:34.052Z,15.01
2018-05-26T00:17:34.029Z,15.02
2018-05-26T00:18:34.051Z,15.15
2018-05-26T00:19:33.982Z,15.02
2018-05-26T00:20:33.952Z,15.05
2018-05-26T00:21:33.932Z,15.10
2018-05-26T00:22:33.903Z,15.18
2018-05-26T00:23:33.918Z,15.18
2018-05-26T00:24:33.849Z,15.10
2018-05-26T00:25:33.829Z,15.05
2018-05-26T00:26:33.844Z,15.15
2018-05-26T00:27:33.778Z,15.12
2018-05-26T00:28:33.793Z,15.10
2018-05-26T00:29:34.127Z,15.20
2018-05-26T00:30:33.698Z,15.07
2018-05-26T00:31:33.724Z,15.08
2018-05-26T00:32:33.644Z,15.13
2018-05-26T00:33:34.133Z,15.10
2018-05-26T00:34:33.595Z,15.04
2018-05-26T00:35:33.568Z,15.08
2018-05-26T00:36:33.543Z,15.04
2018-05-26T00:37:33.517Z,15.02
2018-05-26T00:38:33.538Z,15.07
2018-05-26T00:39:34.073Z,15.07
2018-05-26T00:40:33.443Z,15.04
2018-05-26T00:41:33.418Z,15.02
2018-05-26T00:42:34.074Z,15.10
2018-05-26T00:43:33.408Z,15.04
2018-05-26T00:44:33.344Z,15.07
2018-05-26T00:45:34.073Z,15.01
2018-05-26T00:46:33.295Z,15.00
2018-05-26T00:47:33.261Z,15.13
2018-05-26T00:48:33.639Z,15.04
2018-05-26T00:49:33.217Z,15.10
2018-05-26T00:50:33.185Z,15.07
2018-05-26T00:51:33.163Z,15.08
2018-05-26T00:52:34.071Z,15.07
2018-05-26T00:53:33.158Z,15.07
2018-05-26T00:54:33.083Z,15.16
2018-05-26T00:55:33.064Z,15.08
2018-05-26T00:56:33.575Z,15.19
2018-05-26T00:57:33.009Z,15.19
2018-05-26T00:58:33.028Z,15.18
2018-05-26T00:59:33.579Z,15.18
2018-05-26T01:00:32.936Z,15.13
2018-05-26T01:01:32.906Z,15.19
2018-05-26T01:02:32.898Z,15.18
2018-05-26T01:03:33.128Z,15.12
2018-05-26T01:04:32.888Z,15.18
2018-05-26T01:05:33.587Z,15.19
2018-05-26T01:06:32.777Z,15.18
2018-05-26T01:07:32.752Z,15.18
2018-05-26T01:08:33.577Z,15.13
2018-05-26T01:09:32.751Z,15.16
2018-05-26T01:10:32.676Z,15.16
2018-05-26T01:11:33.576Z,15.16
2018-05-26T01:12:32.623Z,15.19
2018-05-26T01:13:32.640Z,15.19
2018-05-26T01:14:33.078Z,15.15
2018-05-26T01:15:32.589Z,15.18
2018-05-26T01:16:32.521Z,15.12
2018-05-26T01:17:33.080Z,15.13
2018-05-26T01:18:32.514Z,15.12
2018-05-26T01:19:32.446Z,15.12
2018-05-26T01:20:33.084Z,15.15
2018-05-26T01:21:32.445Z,15.00
2018-05-26T01:22:32.371Z,15.05
2018-05-26T01:23:32.343Z,15.00
2018-05-26T01:24:33.081Z,15.00
2018-05-26T01:25:32.291Z,15.05
2018-05-26T01:26:32.308Z,15.00
2018-05-26T01:27:33.081Z,15.02
2018-05-26T01:28:32.215Z,14.95
2018-05-26T01:29:32.232Z,14.97
2018-05-26T01:30:33.082Z,14.95
2018-05-26T01:31:32.141Z,15.05
2018-05-26T01:32:32.165Z,14.95
2018-05-26T01:33:32.088Z,15.04
2018-05-26T01:34:32.142Z,14.87
2018-05-26T01:35:32.040Z,14.94
2018-05-26T01:36:32.010Z,14.98
2018-05-26T01:37:32.138Z,14.98
2018-05-26T01:38:31.961Z,14.94
2018-05-26T01:39:31.934Z,14.98
2018-05-26T01:40:31.967Z,14.97
2018-05-26T01:41:31.881Z,14.97
2018-05-26T01:42:31.856Z,14.98
2018-05-26T01:43:31.833Z,14.94
2018-05-26T01:44:31.805Z,14.97
2018-05-26T01:45:31.833Z,14.95
2018-05-26T01:46:31.759Z,14.79
2018-05-26T01:47:31.729Z,14.94
2018-05-26T01:48:31.705Z,14.93
2018-05-26T01:49:31.682Z,14.90
2018-05-26T01:50:32.145Z,14.87
2018-05-26T01:51:31.629Z,14.83
2018-05-26T01:52:31.645Z,14.71
2018-05-26T01:53:31.576Z,14.74
2018-05-26T01:54:31.549Z,14.77
2018-05-26T01:55:31.525Z,14.70
2018-05-26T01:56:31.500Z,14.74
2018-05-26T01:57:31.523Z,14.70
2018-05-26T01:58:31.450Z,14.74
2018-05-26T01:59:31.424Z,14.67
2018-05-26T02:00:32.088Z,14.66
2018-05-26T02:01:31.381Z,14.59
2018-05-26T02:02:31.405Z,14.57
2018-05-26T02:03:31.317Z,14.57
2018-05-26T02:04:32.089Z,14.53
2018-05-26T02:05:31.265Z,14.49
2018-05-26T02:06:31.241Z,14.45
2018-05-26T02:07:31.264Z,14.49
2018-05-26T02:08:31.650Z,14.42
2018-05-26T02:09:31.160Z,14.45
2018-05-26T02:10:31.139Z,14.49
2018-05-26T02:11:31.110Z,14.48
2018-05-26T02:12:31.087Z,14.46
2018-05-26T02:13:31.115Z,14.42
2018-05-26T02:14:31.040Z,14.48
2018-05-26T02:15:31.011Z,14.42
2018-05-26T02:16:30.983Z,14.51
2018-05-26T02:17:31.594Z,14.39
2018-05-26T02:18:30.978Z,14.36
2018-05-26T02:19:30.945Z,14.41
2018-05-26T02:20:31.592Z,14.38
2018-05-26T02:21:30.851Z,14.31
2018-05-26T02:22:30.825Z,14.41
2018-05-26T02:23:31.590Z,14.38
2018-05-26T02:24:30.854Z,14.41
2018-05-26T02:25:30.752Z,14.45
2018-05-26T02:26:30.723Z,14.45
2018-05-26T02:27:31.595Z,14.41
2018-05-26T02:28:30.677Z,14.41
2018-05-26T02:29:30.702Z,14.44
2018-05-26T02:30:31.595Z,14.42
2018-05-26T02:31:30.594Z,14.41
2018-05-26T02:32:30.568Z,14.33
2018-05-26T02:33:30.597Z,14.34
2018-05-26T02:34:30.565Z,14.31
2018-05-26T02:35:31.650Z,14.30
2018-05-26T02:36:30.464Z,14.30
2018-05-26T02:37:30.437Z,14.26
2018-05-26T02:38:31.095Z,14.16
2018-05-26T02:39:30.386Z,14.23
2018-05-26T02:40:30.417Z,14.24
2018-05-26T02:41:31.093Z,14.20
2018-05-26T02:42:30.306Z,14.11
2018-05-26T02:43:30.283Z,14.16
2018-05-26T02:44:31.097Z,14.13
2018-05-26T02:45:30.341Z,14.21
2018-05-26T02:46:31.100Z,14.13
2018-05-26T02:47:31.100Z,14.05
2018-05-26T02:48:30.273Z,14.01
2018-05-26T02:49:30.127Z,14.06
2018-05-26T02:50:30.119Z,13.99
2018-05-26T02:51:30.079Z,14.03
2018-05-26T02:52:30.105Z,14.11
2018-05-26T02:53:30.021Z,14.19
2018-05-26T02:54:29.996Z,14.06
2018-05-26T02:55:29.968Z,14.15
2018-05-26T02:56:29.943Z,14.06
2018-05-26T02:57:29.970Z,14.21
2018-05-26T02:58:29.889Z,14.15
2018-05-26T02:59:29.868Z,14.15
2018-05-26T03:00:29.851Z,14.09
2018-05-26T03:01:29.808Z,14.12
2018-05-26T03:02:29.831Z,14.03
2018-05-26T03:03:29.759Z,14.03
2018-05-26T03:04:30.601Z,14.12
2018-05-26T03:05:29.705Z,14.11
2018-05-26T03:06:29.739Z,14.08
2018-05-26T03:07:30.602Z,14.03
2018-05-26T03:08:29.624Z,14.02
2018-05-26T03:09:29.601Z,13.99
2018-05-26T03:10:30.104Z,14.01
2018-05-26T03:11:29.605Z,13.99
2018-05-26T03:12:29.525Z,14.01
2018-05-26T03:13:29.537Z,13.99
2018-05-26T03:14:29.513Z,13.95
2018-05-26T03:15:29.449Z,13.88
2018-05-26T03:16:29.416Z,14.02
2018-05-26T03:17:30.102Z,14.01
2018-05-26T03:18:29.411Z,14.01
2018-05-26T03:19:29.337Z,13.97
2018-05-26T03:20:30.103Z,13.95
2018-05-26T03:21:29.286Z,14.03
2018-05-26T03:22:29.266Z,14.16
2018-05-26T03:23:29.278Z,14.24
2018-05-26T03:24:29.669Z,14.27
2018-05-26T03:25:29.230Z,14.33
2018-05-26T03:26:29.153Z,14.34
2018-05-26T03:27:30.101Z,14.48
2018-05-26T03:28:29.101Z,14.44
2018-05-26T03:29:29.128Z,14.51
2018-05-26T03:30:29.603Z,14.53
2018-05-26T03:31:29.023Z,14.59
2018-05-26T03:32:28.994Z,14.63
2018-05-26T03:33:28.974Z,14.64
2018-05-26T03:34:29.167Z,14.77
2018-05-26T03:35:28.926Z,14.70
2018-05-26T03:36:28.945Z,14.70
2018-05-26T03:37:29.610Z,14.90
2018-05-26T03:38:28.846Z,14.87
2018-05-26T03:39:28.815Z,14.85
2018-05-26T03:40:29.606Z,14.87
2018-05-26T03:41:28.802Z,14.90
2018-05-26T03:42:28.735Z,14.98
2018-05-26T03:43:29.608Z,14.94
2018-05-26T03:44:28.685Z,14.95
2018-05-26T03:45:28.710Z,15.05
2018-05-26T03:46:28.641Z,15.00
2018-05-26T03:47:28.609Z,15.04
2018-05-26T03:48:29.104Z,15.04
2018-05-26T03:49:28.552Z,15.02
2018-05-26T03:50:28.584Z,15.02
2018-05-26T03:51:28.506Z,15.19
2018-05-26T03:52:29.105Z,15.12
2018-05-26T03:53:28.450Z,15.26
2018-05-26T03:54:29.110Z,15.34
2018-05-26T03:55:28.443Z,15.34
2018-05-26T03:56:29.108Z,15.35
2018-05-26T03:57:28.395Z,15.34
2018-05-26T03:58:28.322Z,15.44
2018-05-26T03:59:29.109Z,15.43
2018-05-26T04:00:28.273Z,15.41
2018-05-26T04:01:28.246Z,15.49
2018-05-26T04:02:28.662Z,15.49
2018-05-26T04:03:28.223Z,15.47
2018-05-26T04:04:28.186Z,15.51
2018-05-26T04:05:28.144Z,15.52
2018-05-26T04:06:29.110Z,15.51
2018-05-26T04:07:28.139Z,15.44
2018-05-26T04:08:28.133Z,15.45
2018-05-26T04:09:28.042Z,15.49
2018-05-26T04:10:28.021Z,15.49
2018-05-26T04:11:27.992Z,15.59
2018-05-26T04:12:27.969Z,15.65
2018-05-26T04:13:27.995Z,15.74
2018-05-26T04:14:27.917Z,15.73
2018-05-26T04:15:27.939Z,15.73
2018-05-26T04:16:27.866Z,15.77
2018-05-26T04:17:27.841Z,15.78
2018-05-26T04:18:27.892Z,15.88
2018-05-26T04:19:28.614Z,15.93
2018-05-26T04:20:27.768Z,15.95
2018-05-26T04:21:27.788Z,15.99
2018-05-26T04:22:27.719Z,16.00
2018-05-26T04:23:27.735Z,16.07
2018-05-26T04:24:27.671Z,16.14
2018-05-26T04:25:27.645Z,16.30
2018-05-26T04:26:27.614Z,16.65
2018-05-26T04:27:28.114Z,16.91
2018-05-26T04:28:27.618Z,17.09
2018-05-26T04:29:27.546Z,17.06
2018-05-26T04:30:27.516Z,16.94
2018-05-26T04:31:27.508Z,16.97
2018-05-26T04:32:27.474Z,16.85
2018-05-26T04:33:27.494Z,16.87
2018-05-26T04:34:27.442Z,16.77
2018-05-26T04:35:28.136Z,16.77
2018-05-26T04:36:27.370Z,16.74
2018-05-26T04:37:27.348Z,16.81
2018-05-26T04:38:29.163Z,16.76
2018-05-26T04:39:27.445Z,16.77
2018-05-26T04:40:27.294Z,16.77
2018-05-26T04:41:28.118Z,16.80
2018-05-26T04:42:27.235Z,16.77
2018-05-26T04:43:28.116Z,16.74
2018-05-26T04:44:27.218Z,16.70
2018-05-26T04:45:27.204Z,16.74
2018-05-26T04:46:28.135Z,16.65
2018-05-26T04:47:27.114Z,16.67
2018-05-26T04:48:27.080Z,16.69
2018-05-26T04:49:27.049Z,16.82
2018-05-26T04:50:27.094Z,16.76
2018-05-26T04:51:27.005Z,16.84
2018-05-26T04:52:26.985Z,16.85
2018-05-26T04:53:27.623Z,16.87
2018-05-26T04:54:26.928Z,16.84
2018-05-26T04:55:26.960Z,16.82
2018-05-26T04:56:27.182Z,16.87
2018-05-26T04:57:26.859Z,16.87
2018-05-26T04:58:26.833Z,16.91
2018-05-26T04:59:26.805Z,16.91
2018-05-26T05:00:27.623Z,16.97
2018-05-26T05:01:26.818Z,17.03
2018-05-26T05:02:26.740Z,17.03
2018-05-26T05:03:26.712Z,17.07
2018-05-26T05:04:27.639Z,17.07
2018-05-26T05:05:26.660Z,17.12
2018-05-26T05:06:26.693Z,17.15
2018-05-26T05:07:26.617Z,17.13
2018-05-26T05:08:26.642Z,17.32
2018-05-26T05:09:26.568Z,17.28
2018-05-26T05:10:26.558Z,17.36
2018-05-26T05:11:26.523Z,17.40
2018-05-26T05:12:26.498Z,17.39
2018-05-26T05:13:26.527Z,17.45
2018-05-26T05:14:26.446Z,17.46
2018-05-26T05:15:27.125Z,17.50
2018-05-26T05:16:26.399Z,17.55
2018-05-26T05:17:26.390Z,17.50
2018-05-26T05:18:26.412Z,17.62
2018-05-26T05:19:27.122Z,17.63
2018-05-26T05:20:26.312Z,17.81
2018-05-26T05:21:26.280Z,17.80
2018-05-26T05:22:26.256Z,17.80
2018-05-26T05:23:26.693Z,17.84
2018-05-26T05:24:26.245Z,17.96
2018-05-26T05:25:26.198Z,17.88
2018-05-26T05:26:26.162Z,18.01
2018-05-26T05:27:26.149Z,18.03
2018-05-26T05:28:26.633Z,18.06
2018-05-26T05:29:26.134Z,18.19
2018-05-26T05:30:26.079Z,18.14
2018-05-26T05:31:26.089Z,18.19
2018-05-26T05:32:26.059Z,18.19
2018-05-26T05:33:26.026Z,18.23
2018-05-26T05:34:26.022Z,18.24
2018-05-26T05:35:26.013Z,18.36
2018-05-26T05:36:25.941Z,18.41
2018-05-26T05:37:25.957Z,18.39
2018-05-26T05:38:25.885Z,18.39
2018-05-26T05:39:25.858Z,18.45
2018-05-26T05:40:25.883Z,18.49
2018-05-26T05:41:25.858Z,18.59
2018-05-26T05:42:25.792Z,18.57
2018-05-26T05:43:25.805Z,18.69
2018-05-26T05:44:25.748Z,18.71
2018-05-26T05:45:25.721Z,18.76
2018-05-26T05:46:25.913Z,18.81
2018-05-26T05:47:25.685Z,18.82
2018-05-26T05:48:25.651Z,18.90
2018-05-26T05:49:25.635Z,18.96
2018-05-26T05:50:25.607Z,19.00
2018-05-26T05:51:25.638Z,18.97
2018-05-26T05:52:25.687Z,19.10
2018-05-26T05:53:25.537Z,19.23
2018-05-26T05:54:25.532Z,19.17
2018-05-26T05:55:25.494Z,19.24
2018-05-26T05:56:25.474Z,19.34
2018-05-26T05:57:25.494Z,19.38
2018-05-26T05:58:25.426Z,19.40
2018-05-26T05:59:25.403Z,19.49
2018-05-26T06:00:25.382Z,19.57
2018-05-26T06:01:25.360Z,19.63
2018-05-26T06:02:25.385Z,19.64
2018-05-26T06:03:25.330Z,19.53
2018-05-26T06:04:25.292Z,19.70
2018-05-26T06:05:25.270Z,19.83
2018-05-26T06:06:25.247Z,19.89
2018-05-26T06:07:25.270Z,19.92
2018-05-26T06:08:25.263Z,20.04
2018-05-26T06:09:25.183Z,20.01
2018-05-26T06:10:25.268Z,20.12
2018-05-26T06:11:25.149Z,20.08
2018-05-26T06:12:25.122Z,20.18
2018-05-26T06:13:25.135Z,20.23
2018-05-26T06:14:25.160Z,20.22
2018-05-26T06:15:25.115Z,20.27
2018-05-26T06:16:25.041Z,20.34
2018-05-26T06:17:25.017Z,20.46
2018-05-26T06:18:24.992Z,20.49
2018-05-26T06:19:25.043Z,20.44
2018-05-26T06:20:24.948Z,20.48
2018-05-26T06:21:24.979Z,20.44
2018-05-26T06:22:24.913Z,20.53
2018-05-26T06:23:24.882Z,20.42
2018-05-26T06:24:24.862Z,20.44
2018-05-26T06:25:24.841Z,20.48
2018-05-26T06:26:24.904Z,20.48
2018-05-26T06:27:24.798Z,20.51
2018-05-26T06:28:24.775Z,20.48
2018-05-26T06:29:24.750Z,20.46
2018-05-26T06:30:24.730Z,20.46
2018-05-26T06:31:24.755Z,20.44
2018-05-26T06:32:24.691Z,20.49
2018-05-26T06:33:24.666Z,20.42
2018-05-26T06:34:24.649Z,20.38
2018-05-26T06:35:24.668Z,20.32
2018-05-26T06:36:25.550Z,20.48
2018-05-26T06:37:24.580Z,20.30
2018-05-26T06:38:24.635Z,20.35
2018-05-26T06:39:24.538Z,20.37
2018-05-26T06:40:24.520Z,20.38
2018-05-26T06:41:24.496Z,20.49
2018-05-26T06:42:24.474Z,20.41
2018-05-26T06:43:24.508Z,20.46
2018-05-26T06:44:24.432Z,20.51
2018-05-26T06:45:24.450Z,20.46
2018-05-26T06:46:24.429Z,20.48
2018-05-26T06:47:24.384Z,20.44
2018-05-26T06:48:25.158Z,20.57
2018-05-26T06:49:24.729Z,20.56
2018-05-26T06:50:24.336Z,20.58
2018-05-26T06:51:24.337Z,20.63
2018-05-26T06:52:24.262Z,20.58
2018-05-26T06:53:24.235Z,20.56
2018-05-26T06:54:24.280Z,20.64
2018-05-26T06:55:24.193Z,20.66
2018-05-26T06:56:24.169Z,20.63
2018-05-26T06:57:24.156Z,20.61
2018-05-26T06:58:24.131Z,20.66
2018-05-26T06:59:24.160Z,20.63
2018-05-26T07:00:24.096Z,20.71
2018-05-26T07:01:24.117Z,20.74
2018-05-26T07:02:24.139Z,20.83
2018-05-26T07:03:24.026Z,20.79
2018-05-26T07:04:24.001Z,20.81
2018-05-26T07:05:23.983Z,20.83
2018-05-26T07:06:24.027Z,20.94
2018-05-26T07:07:23.942Z,20.96
2018-05-26T07:08:23.913Z,20.96
2018-05-26T07:09:23.891Z,20.96
2018-05-26T07:10:23.877Z,21.03
2018-05-26T07:11:23.893Z,21.03
2018-05-26T07:12:23.835Z,21.12
2018-05-26T07:13:23.808Z,21.08
2018-05-26T07:14:23.792Z,21.04
2018-05-26T07:15:23.764Z,21.13
2018-05-26T07:16:23.798Z,21.12
2018-05-26T07:17:23.720Z,21.18
2018-05-26T07:18:23.718Z,21.19
2018-05-26T07:19:23.728Z,21.28
2018-05-26T07:20:23.659Z,21.30
2018-05-26T07:21:23.644Z,21.33
2018-05-26T07:22:23.617Z,21.46
2018-05-26T07:23:23.643Z,21.43
2018-05-26T07:24:23.634Z,21.46
2018-05-26T07:25:23.555Z,21.45
2018-05-26T07:26:23.526Z,21.52
2018-05-26T07:27:23.505Z,21.58
2018-05-26T07:28:23.585Z,21.53
2018-05-26T07:29:23.471Z,21.67
2018-05-26T07:30:23.444Z,21.67
2018-05-26T07:31:23.424Z,21.73
2018-05-26T07:32:23.403Z,21.67
2018-05-26T07:33:23.439Z,21.67
2018-05-26T07:34:23.367Z,21.68
2018-05-26T07:35:23.344Z,21.70
2018-05-26T07:36:23.325Z,21.70
2018-05-26T07:37:23.302Z,21.70
2018-05-26T07:38:24.066Z,21.59
2018-05-26T07:39:23.301Z,21.68
2018-05-26T07:40:24.212Z,21.77
2018-05-26T07:41:23.213Z,21.70
2018-05-26T07:42:24.068Z,21.77
2018-05-26T07:43:23.172Z,21.76
2018-05-26T07:44:23.218Z,21.71
2018-05-26T07:45:24.073Z,21.80
2018-05-26T07:46:23.120Z,21.77
2018-05-26T07:47:23.084Z,21.92
2018-05-26T07:48:23.070Z,21.82
2018-05-26T07:49:23.093Z,21.90
2018-05-26T07:50:23.024Z,21.89
2018-05-26T07:51:22.999Z,21.89
2018-05-26T07:52:22.984Z,21.89
2018-05-26T07:53:22.962Z,21.90
2018-05-26T07:54:22.987Z,21.94
2018-05-26T07:55:22.962Z,21.93
2018-05-26T07:56:22.925Z,22.07
2018-05-26T07:57:22.879Z,22.08
2018-05-26T07:58:22.909Z,22.07
2018-05-26T07:59:22.914Z,22.11
2018-05-26T08:00:22.821Z,22.08
2018-05-26T08:01:22.790Z,22.12
2018-05-26T08:02:22.767Z,22.22
2018-05-26T08:03:22.760Z,22.11
2018-05-26T08:04:22.804Z,22.22
2018-05-26T08:05:22.731Z,22.29
2018-05-26T08:06:22.685Z,22.22
2018-05-26T08:07:22.664Z,22.33
2018-05-26T08:08:22.649Z,22.39
2018-05-26T08:09:22.684Z,22.39
2018-05-26T08:10:22.647Z,22.38
2018-05-26T08:11:22.581Z,22.31
2018-05-26T08:12:22.558Z,22.39
2018-05-26T08:13:22.542Z,22.41
2018-05-26T08:14:23.180Z,22.45
2018-05-26T08:15:22.733Z,22.45
2018-05-26T08:16:22.484Z,22.44
2018-05-26T08:17:22.517Z,22.52
2018-05-26T08:18:22.441Z,22.55
2018-05-26T08:19:22.419Z,22.45
2018-05-26T08:20:22.441Z,22.54
2018-05-26T08:21:22.469Z,22.52
2018-05-26T08:22:22.365Z,22.60
2018-05-26T08:23:22.332Z,22.60
2018-05-26T08:24:22.325Z,22.67
2018-05-26T08:25:22.296Z,22.64
2018-05-26T08:26:22.318Z,22.78
2018-05-26T08:27:22.299Z,22.78
2018-05-26T08:28:22.238Z,22.81
2018-05-26T08:29:22.211Z,22.76
2018-05-26T08:30:22.189Z,22.86
2018-05-26T08:31:23.080Z,22.78
2018-05-26T08:32:22.206Z,22.88
2018-05-26T08:33:22.126Z,22.86
2018-05-26T08:34:22.123Z,22.84
2018-05-26T08:35:22.093Z,22.79
2018-05-26T08:36:22.115Z,22.86
2018-05-26T08:37:22.044Z,22.92
2018-05-26T08:38:22.087Z,22.94
2018-05-26T08:39:22.005Z,22.91
2018-05-26T08:40:22.145Z,22.91
2018-05-26T08:41:21.973Z,22.99
2018-05-26T08:42:21.990Z,23.00
2018-05-26T08:43:21.924Z,23.00
2018-05-26T08:44:21.923Z,23.04
2018-05-26T08:45:21.890Z,23.04
2018-05-26T08:46:21.865Z,23.04
2018-05-26T08:47:21.886Z,23.12
2018-05-26T08:48:21.823Z,23.16
2018-05-26T08:49:21.807Z,23.18
2018-05-26T08:50:21.830Z,23.24
2018-05-26T08:51:21.786Z,23.19
2018-05-26T08:52:21.799Z,23.25
2018-05-26T08:53:21.722Z,23.28
2018-05-26T08:54:21.698Z,23.34
2018-05-26T08:55:21.686Z,23.38
2018-05-26T08:56:21.660Z,23.32
2018-05-26T08:57:21.688Z,23.28
2018-05-26T08:58:21.618Z,23.26
2018-05-26T08:59:21.606Z,23.29
2018-05-26T09:00:21.583Z,23.35
2018-05-26T09:01:21.560Z,23.45
2018-05-26T09:02:21.624Z,23.52
2018-05-26T09:03:21.520Z,23.45
2018-05-26T09:04:21.508Z,23.56
2018-05-26T09:05:21.526Z,23.66
2018-05-26T09:06:21.516Z,23.64
2018-05-26T09:07:21.491Z,23.63
2018-05-26T09:08:21.441Z,23.60
2018-05-26T09:09:21.408Z,23.72
2018-05-26T09:10:21.394Z,23.75
2018-05-26T09:11:22.191Z,23.66
2018-05-26T09:12:21.434Z,23.63
2018-05-26T09:13:21.321Z,23.67
2018-05-26T09:14:21.306Z,23.63
2018-05-26T09:15:21.282Z,23.71
2018-05-26T09:16:21.268Z,23.64
2018-05-26T09:17:21.292Z,23.72
2018-05-26T09:18:21.225Z,23.81
2018-05-26T09:19:21.205Z,23.79
2018-05-26T09:20:21.185Z,23.77
2018-05-26T09:21:21.164Z,23.70
2018-05-26T09:22:21.190Z,23.74
2018-05-26T09:23:21.198Z,23.78
2018-05-26T09:24:21.108Z,23.85
2018-05-26T09:25:21.149Z,23.89
2018-05-26T09:26:21.061Z,23.82
2018-05-26T09:27:21.185Z,23.89
2018-05-26T09:28:21.027Z,23.94
2018-05-26T09:29:21.002Z,24.00
2018-05-26T09:30:21.024Z,24.03
2018-05-26T09:31:20.968Z,24.00
2018-05-26T09:32:20.995Z,23.97
2018-05-26T09:33:20.968Z,24.12
2018-05-26T09:34:21.693Z,24.09
2018-05-26T09:35:20.886Z,24.14
2018-05-26T09:36:20.866Z,24.15
2018-05-26T09:37:20.848Z,24.11
2018-05-26T09:38:20.892Z,24.09
2018-05-26T09:39:21.698Z,24.09
2018-05-26T09:40:20.790Z,24.09
2018-05-26T09:41:20.767Z,23.97
2018-05-26T09:42:20.749Z,24.07
2018-05-26T09:43:20.777Z,23.97
2018-05-26T09:44:20.877Z,23.99
2018-05-26T09:45:20.694Z,24.02
2018-05-26T09:46:20.670Z,24.09
2018-05-26T09:47:20.654Z,24.11
2018-05-26T09:48:21.197Z,24.14
2018-05-26T09:49:20.806Z,24.21
2018-05-26T09:50:20.596Z,24.24
2018-05-26T09:51:20.578Z,24.24
2018-05-26T09:52:20.600Z,24.32
2018-05-26T09:53:20.538Z,24.39
2018-05-26T09:54:20.557Z,24.34
2018-05-26T09:55:20.525Z,24.39
2018-05-26T09:56:20.582Z,24.34
2018-05-26T09:57:20.467Z,24.37
2018-05-26T09:58:20.478Z,24.36
2018-05-26T09:59:20.422Z,24.37
2018-05-26T10:00:20.402Z,24.40
2018-05-26T10:01:20.377Z,24.37
2018-05-26T10:02:20.407Z,24.40
2018-05-26T10:03:20.343Z,24.48
2018-05-26T10:04:20.377Z,24.48
2018-05-26T10:05:20.311Z,24.51
2018-05-26T10:06:20.321Z,24.52
2018-05-26T10:07:20.360Z,24.52
2018-05-26T10:08:20.247Z,24.49
2018-05-26T10:09:20.232Z,24.64
2018-05-26T10:10:20.268Z,24.64
2018-05-26T10:11:20.190Z,24.74
2018-05-26T10:12:20.213Z,24.69
2018-05-26T10:13:20.197Z,24.69
2018-05-26T10:14:20.126Z,24.66
2018-05-26T10:15:20.208Z,24.71
2018-05-26T10:16:20.091Z,24.64
2018-05-26T10:17:20.130Z,24.78
2018-05-26T10:18:20.051Z,24.78
2018-05-26T10:19:20.041Z,24.82
2018-05-26T10:20:20.034Z,24.87
2018-05-26T10:21:19.992Z,24.86
2018-05-26T10:22:20.016Z,24.83
2018-05-26T10:23:19.957Z,24.86
2018-05-26T10:24:19.986Z,24.83
2018-05-26T10:25:19.921Z,24.96
2018-05-26T10:26:19.954Z,24.96
2018-05-26T10:27:19.877Z,24.97
2018-05-26T10:28:20.025Z,25.07
2018-05-26T10:29:19.839Z,25.04
2018-05-26T10:30:19.822Z,25.17
2018-05-26T10:31:19.801Z,25.07
2018-05-26T10:32:19.811Z,25.11
2018-05-26T10:33:19.810Z,25.14
2018-05-26T10:34:19.744Z,25.12
2018-05-26T10:35:19.728Z,25.08
2018-05-26T10:36:19.718Z,25.12
2018-05-26T10:37:19.702Z,25.12
2018-05-26T10:38:19.726Z,25.15
2018-05-26T10:39:19.657Z,25.11
2018-05-26T10:40:19.634Z,25.20
2018-05-26T10:41:19.624Z,25.30
2018-05-26T10:42:19.597Z,25.39
2018-05-26T10:43:19.628Z,25.41
2018-05-26T10:44:19.597Z,25.42
2018-05-26T10:45:19.540Z,25.45
2018-05-26T10:46:19.575Z,25.56
2018-05-26T10:47:19.503Z,25.52
2018-05-26T10:48:19.490Z,25.54
2018-05-26T10:49:19.463Z,25.56
2018-05-26T10:50:19.489Z,25.59
2018-05-26T10:51:19.439Z,25.49
2018-05-26T10:52:19.427Z,25.57
2018-05-26T10:53:19.399Z,25.54
2018-05-26T10:54:19.373Z,25.60
2018-05-26T10:55:19.532Z,25.57
2018-05-26T10:56:19.336Z,25.67
2018-05-26T10:57:19.323Z,25.59
2018-05-26T10:58:20.228Z,25.71
2018-05-26T10:59:19.325Z,25.74
2018-05-26T11:00:19.257Z,25.85
2018-05-26T11:01:19.238Z,25.99
2018-05-26T11:02:19.260Z,25.99
2018-05-26T11:03:19.748Z,26.06
2018-05-26T11:04:19.230Z,26.19
2018-05-26T11:05:19.170Z,26.37
2018-05-26T11:06:19.211Z,26.39
2018-05-26T11:07:19.153Z,26.56
2018-05-26T11:08:19.121Z,26.39
2018-05-26T11:09:19.093Z,26.56
2018-05-26T11:10:19.074Z,26.52
2018-05-26T11:11:19.104Z,26.39
2018-05-26T11:12:19.087Z,26.42
2018-05-26T11:13:19.024Z,26.42
2018-05-26T11:14:19.002Z,26.52
2018-05-26T11:15:18.986Z,26.53
2018-05-26T11:16:19.133Z,26.54
2018-05-26T11:17:18.999Z,26.64
2018-05-26T11:18:18.930Z,26.67
2018-05-26T11:19:18.927Z,26.67
2018-05-26T11:20:18.914Z,26.79
2018-05-26T11:21:18.889Z,26.75
2018-05-26T11:22:18.912Z,26.82
2018-05-26T11:23:18.873Z,26.86
2018-05-26T11:24:18.926Z,26.84
2018-05-26T11:25:18.842Z,26.89
2018-05-26T11:26:18.855Z,26.91
2018-05-26T11:27:18.830Z,26.79
2018-05-26T11:28:18.792Z,26.74
2018-05-26T11:29:18.739Z,26.72
2018-05-26T11:30:18.718Z,26.71
2018-05-26T11:31:18.712Z,26.75
2018-05-26T11:32:18.729Z,26.50
2018-05-26T11:33:18.741Z,26.41
2018-05-26T11:34:18.696Z,26.26
2018-05-26T11:35:18.660Z,26.07
2018-05-26T11:36:18.614Z,25.96
2018-05-26T11:37:18.664Z,25.82
2018-05-26T11:38:18.635Z,25.79
2018-05-26T11:39:18.557Z,25.79
2018-05-26T11:40:18.545Z,25.60
2018-05-26T11:41:18.525Z,25.52
2018-05-26T11:42:18.505Z,25.59
2018-05-26T11:43:18.537Z,25.54
2018-05-26T11:44:18.536Z,25.59
2018-05-26T11:45:18.451Z,25.47
2018-05-26T11:46:18.446Z,25.45
2018-05-26T11:47:18.456Z,25.48
2018-05-26T11:48:18.401Z,25.49
2018-05-26T11:49:18.433Z,25.54
2018-05-26T11:50:18.357Z,25.51
2018-05-26T11:51:18.337Z,25.66
2018-05-26T11:52:18.317Z,25.69
2018-05-26T11:53:18.380Z,25.82
2018-05-26T11:54:18.346Z,25.89
2018-05-26T11:55:18.266Z,25.96
2018-05-26T11:56:18.246Z,25.99
2018-05-26T11:57:18.238Z,25.99
2018-05-26T11:58:18.206Z,26.04
2018-05-26T11:59:18.237Z,26.09
2018-05-26T12:00:18.230Z,26.26
2018-05-26T12:01:18.153Z,26.34
2018-05-26T12:02:18.150Z,26.37
2018-05-26T12:03:18.120Z,26.53
2018-05-26T12:04:18.105Z,26.61
2018-05-26T12:05:18.127Z,26.64
2018-05-26T12:06:18.061Z,26.78
2018-05-26T12:07:18.042Z,26.71
2018-05-26T12:08:18.069Z,26.86
2018-05-26T12:09:18.010Z,26.93
2018-05-26T12:10:18.054Z,27.00
2018-05-26T12:11:18.021Z,26.97
2018-05-26T12:12:17.957Z,26.82
2018-05-26T12:13:17.945Z,26.93
2018-05-26T12:14:17.917Z,26.90
2018-05-26T12:15:17.899Z,26.93
2018-05-26T12:16:17.983Z,26.87
2018-05-26T12:17:17.917Z,26.90
2018-05-26T12:18:17.850Z,27.01
2018-05-26T12:19:17.831Z,26.97
2018-05-26T12:20:17.810Z,27.04
2018-05-26T12:21:17.794Z,27.00
2018-05-26T12:22:17.878Z,27.11
2018-05-26T12:23:17.822Z,27.04
2018-05-26T12:24:17.752Z,26.94
2018-05-26T12:25:17.725Z,26.94
2018-05-26T12:26:17.720Z,26.90
2018-05-26T12:27:17.736Z,26.90
2018-05-26T12:28:17.681Z,27.04
2018-05-26T12:29:18.256Z,27.01
2018-05-26T12:30:17.636Z,27.18
2018-05-26T12:31:17.621Z,27.33
2018-05-26T12:32:17.658Z,27.43
2018-05-26T12:33:17.588Z,27.48
2018-05-26T12:34:17.570Z,27.65
2018-05-26T12:35:17.556Z,27.72
2018-05-26T12:36:17.539Z,27.57
2018-05-26T12:37:17.571Z,27.51
2018-05-26T12:38:17.502Z,27.42
2018-05-26T12:39:17.484Z,27.43
2018-05-26T12:40:17.475Z,27.41
2018-05-26T12:41:17.454Z,27.38
2018-05-26T12:42:17.481Z,27.57
2018-05-26T12:43:17.465Z,27.57
2018-05-26T12:44:17.402Z,27.64
2018-05-26T12:45:17.471Z,27.57
2018-05-26T12:46:17.369Z,27.41
2018-05-26T12:47:17.347Z,27.31
2018-05-26T12:48:17.349Z,27.30
2018-05-26T12:49:17.315Z,27.36
2018-05-26T12:50:17.352Z,27.52
2018-05-26T12:51:17.280Z,27.41
2018-05-26T12:52:17.319Z,27.49